Time;durP1;ratioP1;P1;durP2;ratioP2;P2;SDS_P1;SDS_P2;PMS_P1;PMS_P2;Temp;Humidity;BMP_temperature;BMP_pressure;BME280_temperature;BME280_humidity;BME280_pressure;Samples;Min_cycle;Max_cycle;Signal;HPM_P1;HPM_P2
2023/08/05 00:01:06;;;;;;;24.30;14.10;;;;;;;20.77;100.00;101136.60;106495;1287;58376;-77
2023/08/05 00:03:32;;;;;;;27.60;14.60;;;;;;;20.73;100.00;101136.52;106488;1287;58593;-78
2023/08/05 00:05:57;;;;;;;23.70;14.00;;;;;;;20.68;100.00;101135.56;106458;1287;60659;-78
2023/08/05 00:08:24;;;;;;;22.20;13.80;;;;;;;20.64;100.00;101136.08;106771;1285;58207;-78
2023/08/05 00:10:50;;;;;;;25.70;13.50;;;;;;;20.63;100.00;101136.50;106866;1284;58547;-79
2023/08/05 00:13:16;;;;;;;27.40;13.60;;;;;;;20.62;100.00;101143.55;106862;1284;58509;-77
2023/08/05 00:15:41;;;;;;;23.90;13.60;;;;;;;20.60;100.00;101148.86;106592;1287;58666;-77
2023/08/05 00:18:07;;;;;;;26.20;14.80;;;;;;;20.61;100.00;101146.96;106854;1284;58190;-77
2023/08/05 00:20:33;;;;;;;24.70;14.60;;;;;;;20.61;100.00;101147.34;106929;1284;58250;-77
2023/08/05 00:22:58;;;;;;;25.50;13.70;;;;;;;20.60;100.00;101141.90;106827;1285;74744;-77
2023/08/05 00:25:24;;;;;;;24.50;14.20;;;;;;;20.61;100.00;101142.00;106247;1285;386029;-78
2023/08/05 00:27:49;;;;;;;24.30;14.80;;;;;;;20.62;100.00;101137.43;106847;1284;58338;-78
2023/08/05 00:30:15;;;;;;;21.90;13.30;;;;;;;20.60;100.00;101134.23;106849;1284;58223;-78
2023/08/05 00:32:40;;;;;;;17.60;12.10;;;;;;;20.57;100.00;101139.46;106864;1285;58255;-78
2023/08/05 00:35:07;;;;;;;21.90;12.90;;;;;;;20.53;100.00;101140.27;106880;1285;59190;-77
2023/08/05 00:37:34;;;;;;;21.80;13.70;;;;;;;20.49;100.00;101137.52;106803;1284;58244;-77
2023/08/05 00:40:00;;;;;;;23.50;13.50;;;;;;;20.46;100.00;101140.04;106854;1284;58245;-77
2023/08/05 00:42:28;;;;;;;21.80;13.60;;;;;;;20.42;100.00;101140.51;106899;1284;58230;-77
2023/08/05 00:44:54;;;;;;;22.10;14.10;;;;;;;20.40;100.00;101141.69;106884;1284;74264;-77
2023/08/05 00:47:20;;;;;;;23.40;14.10;;;;;;;20.37;100.00;101142.23;106875;1284;58375;-78
2023/08/05 00:49:49;;;;;;;29.20;14.90;;;;;;;20.35;100.00;101142.84;106864;1284;58246;-77
2023/08/05 00:52:16;;;;;;;25.10;14.80;;;;;;;20.33;100.00;101144.54;106855;1284;60223;-77
2023/08/05 00:54:42;;;;;;;24.20;16.10;;;;;;;20.32;100.00;101145.59;106850;1284;74785;-77
2023/08/05 00:57:11;;;;;;;28.60;17.30;;;;;;;20.31;100.00;101144.42;106886;1284;58211;-79
2023/08/05 00:59:37;;;;;;;25.50;15.60;;;;;;;20.29;100.00;101145.35;106829;1284;73421;-77
2023/08/05 01:02:02;;;;;;;29.60;15.70;;;;;;;20.28;100.00;101143.23;106840;1284;58320;-77
2023/08/05 01:04:28;;;;;;;31.00;16.50;;;;;;;20.26;100.00;101145.36;106731;1285;58310;-77
2023/08/05 01:06:54;;;;;;;25.90;16.10;;;;;;;20.25;100.00;101143.55;106832;1284;58312;-77
2023/08/05 01:09:20;;;;;;;27.40;15.90;;;;;;;20.22;100.00;101143.73;106878;1284;58117;-78
2023/08/05 01:11:46;;;;;;;24.50;16.10;;;;;;;20.20;100.00;101140.20;106588;1285;58627;-77
2023/08/05 01:14:11;;;;;;;27.50;17.30;;;;;;;20.20;100.00;101139.48;106856;1284;59825;-77
2023/08/05 01:16:37;;;;;;;23.70;15.80;;;;;;;20.20;100.00;101143.09;106591;1285;59081;-77
2023/08/05 01:19:09;;;;;;;29.30;16.50;;;;;;;20.17;100.00;101142.73;106888;1284;58304;-77
2023/08/05 01:21:59;;;;;;;24.20;15.90;;;;;;;20.17;100.00;101149.13;106846;1284;73403;-77
2023/08/05 01:24:51;;;;;;;24.70;16.00;;;;;;;20.16;100.00;101145.87;106878;1284;62781;-77
2023/08/05 01:27:17;;;;;;;26.40;16.30;;;;;;;20.14;100.00;101148.34;106904;1284;61124;-77
2023/08/05 01:29:43;;;;;;;24.90;15.40;;;;;;;20.13;100.00;101152.13;106853;1284;58273;-77
2023/08/05 01:32:09;;;;;;;28.10;16.40;;;;;;;20.13;100.00;101147.39;106908;1284;58164;-76
2023/08/05 01:34:37;;;;;;;22.60;14.80;;;;;;;20.12;100.00;101150.64;106879;1284;58331;-77
2023/08/05 01:37:03;;;;;;;27.90;16.30;;;;;;;20.13;100.00;101150.00;106871;1284;58198;-77
2023/08/05 01:39:28;;;;;;;25.80;16.70;;;;;;;20.14;100.00;101144.95;106905;1284;58275;-74
2023/08/05 01:41:54;;;;;;;30.30;16.90;;;;;;;20.13;100.00;101151.55;106924;1284;58310;-76
2023/08/05 01:44:19;;;;;;;25.90;15.50;;;;;;;20.08;100.00;101150.18;106877;1284;58309;-77
2023/08/05 01:46:45;;;;;;;28.80;16.20;;;;;;;20.03;100.00;101151.77;106885;1284;58232;-77
2023/08/05 01:49:10;;;;;;;25.50;15.70;;;;;;;19.99;100.00;101149.23;106860;1284;58222;-77
2023/08/05 01:51:36;;;;;;;23.50;14.80;;;;;;;19.97;100.00;101149.77;106600;1285;58303;-77
2023/08/05 01:54:01;;;;;;;25.50;16.70;;;;;;;19.95;100.00;101151.70;106963;1284;58512;-78
2023/08/05 01:56:26;;;;;;;31.40;16.30;;;;;;;19.91;100.00;101151.98;106906;1284;58314;-77
2023/08/05 01:58:52;;;;;;;26.70;15.90;;;;;;;19.89;100.00;101155.27;106894;1284;58560;-78
2023/08/05 02:01:17;;;;;;;29.60;16.70;;;;;;;19.87;100.00;101161.89;106913;1284;58228;-77
2023/08/05 02:03:43;;;;;;;26.30;16.10;;;;;;;19.83;100.00;101170.89;106643;1285;58331;-77
2023/08/05 02:06:08;;;;;;;28.10;15.00;;;;;;;19.76;100.00;101170.52;106845;1284;58299;-76
2023/08/05 02:08:34;;;;;;;27.60;16.00;;;;;;;19.70;100.00;101173.58;106852;1284;58718;-77
2023/08/05 02:10:59;;;;;;;24.00;16.10;;;;;;;19.68;100.00;101172.92;106933;1284;58530;-78
2023/08/05 02:13:25;;;;;;;24.90;15.30;;;;;;;19.66;100.00;101172.16;106931;1284;58275;-76
2023/08/05 02:15:50;;;;;;;26.50;16.40;;;;;;;19.64;100.00;101171.73;106878;1284;58313;-78
2023/08/05 02:18:16;;;;;;;25.50;15.80;;;;;;;19.63;100.00;101174.25;106866;1284;58343;-77
2023/08/05 02:20:41;;;;;;;25.40;15.40;;;;;;;19.62;100.00;101177.48;106890;1284;58585;-76
2023/08/05 02:23:07;;;;;;;29.90;16.00;;;;;;;19.59;100.00;101174.71;106640;1285;58362;-76
2023/08/05 02:25:33;;;;;;;29.50;15.70;;;;;;;19.57;100.00;101173.51;106874;1284;58311;-77
2023/08/05 02:27:58;;;;;;;22.00;14.70;;;;;;;19.54;100.00;101176.41;106874;1284;58328;-78
2023/08/05 02:30:23;;;;;;;21.30;14.00;;;;;;;19.52;100.00;101174.36;106878;1284;58630;-77
2023/08/05 02:32:49;;;;;;;23.20;14.20;;;;;;;19.54;100.00;101173.30;106699;1285;58643;-78
2023/08/05 02:35:14;;;;;;;27.20;15.50;;;;;;;19.57;100.00;101178.75;106931;1284;58358;-77
2023/08/05 02:37:40;;;;;;;26.50;15.40;;;;;;;19.60;100.00;101176.51;106902;1284;58231;-77
2023/08/05 02:40:06;;;;;;;33.90;15.70;;;;;;;19.63;100.00;101175.35;106847;1284;58252;-77
2023/08/05 02:42:31;;;;;;;26.80;15.40;;;;;;;19.65;100.00;101179.50;106922;1284;58284;-78
2023/08/05 02:44:58;;;;;;;24.70;14.90;;;;;;;19.63;100.00;101178.44;106890;1284;58269;-78
2023/08/05 02:47:23;;;;;;;23.80;14.90;;;;;;;19.59;100.00;101183.80;106856;1284;58207;-77
2023/08/05 02:49:49;;;;;;;26.80;14.50;;;;;;;19.62;100.00;101180.68;106893;1284;58315;-79
2023/08/05 02:52:14;;;;;;;25.00;14.80;;;;;;;19.61;100.00;101184.48;106892;1284;58274;-78
2023/08/05 02:54:39;;;;;;;31.40;14.20;;;;;;;19.59;100.00;101190.04;106874;1284;58449;-77
2023/08/05 02:57:05;;;;;;;25.60;14.50;;;;;;;19.64;100.00;101185.99;106858;1284;58332;-78
2023/08/05 02:59:30;;;;;;;23.30;13.80;;;;;;;19.67;100.00;101180.81;106877;1284;58300;-78
2023/08/05 03:01:56;;;;;;;22.70;14.30;;;;;;;19.74;100.00;101180.98;106949;1284;58265;-78
2023/08/05 03:04:21;;;;;;;26.30;15.00;;;;;;;19.84;100.00;101180.05;106862;1284;58365;-77
2023/08/05 03:06:47;;;;;;;27.60;16.20;;;;;;;19.97;100.00;101179.77;106874;1284;58255;-78
2023/08/05 03:09:13;;;;;;;26.30;15.90;;;;;;;20.06;100.00;101180.17;106879;1284;58269;-78
2023/08/05 03:11:39;;;;;;;28.30;15.20;;;;;;;20.16;100.00;101183.16;106865;1284;58302;-78
2023/08/05 03:14:05;;;;;;;29.80;16.30;;;;;;;20.23;100.00;101189.52;106757;1285;58210;-78
2023/08/05 03:16:30;;;;;;;23.10;16.00;;;;;;;20.30;100.00;101190.77;106881;1284;58318;-78
2023/08/05 03:18:56;;;;;;;25.30;15.80;;;;;;;20.37;100.00;101189.89;106863;1284;58682;-78
2023/08/05 03:21:21;;;;;;;27.50;16.50;;;;;;;20.44;100.00;101190.80;106896;1284;58318;-78
2023/08/05 03:23:47;;;;;;;27.80;15.50;;;;;;;20.54;100.00;101191.95;106568;1285;58358;-78
2023/08/05 03:26:12;;;;;;;24.50;16.00;;;;;;;20.62;100.00;101189.27;106892;1284;58316;-78
2023/08/05 03:28:38;;;;;;;28.70;16.70;;;;;;;20.73;100.00;101187.30;106645;1285;58483;-78
2023/08/05 03:31:03;;;;;;;25.80;15.80;;;;;;;20.85;100.00;101183.37;106873;1284;58368;-78
2023/08/05 03:33:29;;;;;;;24.10;16.00;;;;;;;21.00;100.00;101184.51;106605;1285;58363;-78
2023/08/05 03:35:54;;;;;;;24.10;15.50;;;;;;;21.16;100.00;101175.64;106900;1284;58258;-77
2023/08/05 03:38:20;;;;;;;26.90;17.70;;;;;;;21.27;100.00;101178.48;106833;1284;58266;-79
2023/08/05 03:40:45;;;;;;;24.80;16.20;;;;;;;21.43;100.00;101184.44;106949;1284;58188;-78
2023/08/05 03:43:11;;;;;;;30.80;18.10;;;;;;;21.54;100.00;101181.29;106589;1284;58249;-79
2023/08/05 03:45:36;;;;;;;33.00;19.00;;;;;;;21.61;100.00;101177.83;106856;1284;58979;-77
2023/08/05 03:48:02;;;;;;;28.90;19.20;;;;;;;21.93;100.00;101179.15;106571;1285;58313;-79
2023/08/05 03:50:28;;;;;;;32.10;19.30;;;;;;;22.69;100.00;101181.81;106900;1284;58276;-78
2023/08/05 03:52:55;;;;;;;30.90;18.40;;;;;;;23.56;100.00;101175.83;106883;1284;58282;-79
2023/08/05 03:55:21;;;;;;;32.50;18.70;;;;;;;24.32;100.00;101175.15;106900;1284;58200;-80
2023/08/05 03:57:47;;;;;;;55.20;19.60;;;;;;;25.06;100.00;101174.30;106933;1284;58415;-79
2023/08/05 04:00:13;;;;;;;27.90;18.00;;;;;;;25.82;100.00;101166.20;106844;1284;61902;-80
2023/08/05 04:02:38;;;;;;;29.30;17.40;;;;;;;26.56;100.00;101165.77;106619;1285;59209;-80
2023/08/05 04:05:04;;;;;;;27.60;16.90;;;;;;;27.09;100.00;101159.56;106891;1284;58278;-79
2023/08/05 04:07:33;;;;;;;32.50;15.30;;;;;;;27.58;100.00;101158.65;106858;1284;58287;-80
2023/08/05 04:09:59;;;;;;;26.50;15.60;;;;;;;28.08;100.00;101157.04;106617;1285;72936;-79
2023/08/05 04:12:25;;;;;;;27.70;16.20;;;;;;;28.49;100.00;101167.56;106904;1284;58553;-80
2023/08/05 04:14:52;;;;;;;23.70;15.30;;;;;;;29.09;100.00;101169.17;106896;1284;58155;-80
2023/08/05 04:17:21;;;;;;;27.20;15.30;;;;;;;29.54;100.00;101168.03;106881;1284;58809;-81
2023/08/05 04:19:47;;;;;;;29.20;15.60;;;;;;;29.89;100.00;101167.40;106592;1284;73370;-79
2023/08/05 04:22:16;;;;;;;31.50;15.30;;;;;;;30.13;100.00;101164.36;106840;1284;58299;-80
2023/08/05 04:24:44;;;;;;;45.80;15.90;;;;;;;30.44;100.00;101170.75;106818;1284;61112;-81
2023/08/05 04:27:10;;;;;;;22.10;13.80;;;;;;;30.96;98.99;101175.15;106885;1284;60187;-80
2023/08/05 04:29:35;;;;;;;21.20;13.40;;;;;;;31.13;95.40;101177.36;106624;1284;58308;-80
2023/08/05 04:32:01;;;;;;;21.20;13.80;;;;;;;31.44;92.85;101173.13;106888;1284;58442;-80
2023/08/05 04:34:35;;;;;;;26.90;13.50;;;;;;;31.57;90.88;101170.27;106899;1284;58521;-80
2023/08/05 04:37:21;;;;;;;20.60;13.10;;;;;;;32.01;89.03;101161.80;106534;1284;60058;-80
2023/08/05 04:39:46;;;;;;;18.60;12.60;;;;;;;32.48;84.90;101166.95;106889;1284;61086;-81
2023/08/05 04:42:13;;;;;;;15.70;11.80;;;;;;;32.95;81.68;101167.64;106934;1284;58220;-79
2023/08/05 04:44:40;;;;;;;17.40;10.90;;;;;;;33.47;79.61;101167.04;106879;1284;58267;-79
2023/08/05 04:47:07;;;;;;;22.60;11.50;;;;;;;34.02;74.65;101168.20;106858;1284;72916;-79
2023/08/05 04:49:33;;;;;;;15.30;11.10;;;;;;;34.31;72.30;101162.64;106854;1284;61180;-81
2023/08/05 04:52:13;;;;;;;15.60;11.80;;;;;;;34.80;69.76;101159.41;106906;1284;58250;-81
2023/08/05 04:54:43;;;;;;;17.20;11.40;;;;;;;35.37;68.42;101160.23;106901;1284;75187;-82
2023/08/05 04:57:09;;;;;;;19.00;11.70;;;;;;;35.68;62.00;101160.55;106922;1284;74482;-81
2023/08/05 04:59:38;;;;;;;19.80;11.30;;;;;;;35.43;61.29;101162.02;106617;1285;58251;-82
2023/08/05 05:02:06;;;;;;;16.40;11.80;;;;;;;35.82;62.51;101164.47;106885;1284;59905;-82
2023/08/05 05:04:34;;;;;;;20.10;13.30;;;;;;;36.05;59.13;101161.38;106784;1285;61125;-81
2023/08/05 05:07:00;;;;;;;17.20;12.70;;;;;;;36.41;58.56;101161.11;106644;1284;73697;-82
2023/08/05 05:09:26;;;;;;;18.70;13.20;;;;;;;36.76;56.06;101163.14;106881;1284;58288;-82
2023/08/05 05:11:53;;;;;;;18.70;13.20;;;;;;;36.73;54.88;101161.77;106883;1284;58469;-80
2023/08/05 05:14:20;;;;;;;20.20;12.70;;;;;;;37.18;55.10;101162.09;106863;1284;58598;-81
2023/08/05 05:16:46;;;;;;;25.20;13.50;;;;;;;37.87;54.11;101160.77;106794;1284;58242;-81
2023/08/05 05:19:11;;;;;;;19.00;13.60;;;;;;;38.20;50.65;101158.27;106901;1284;58313;-83
2023/08/05 05:21:37;;;;;;;22.20;12.60;;;;;;;38.21;49.51;101156.88;106897;1284;58290;-82
2023/08/05 05:24:02;;;;;;;30.70;13.60;;;;;;;38.00;47.67;101158.31;106870;1284;58243;-82
2023/08/05 05:26:28;;;;;;;15.30;12.60;;;;;;;37.81;47.92;101159.91;106655;1284;58685;-83
2023/08/05 05:28:53;;;;;;;20.20;12.90;;;;;;;37.93;48.07;101162.23;106882;1284;73886;-82
2023/08/05 05:31:19;;;;;;;19.30;12.50;;;;;;;38.22;47.13;101162.41;106583;1284;58314;-82
2023/08/05 05:33:47;;;;;;;15.30;12.60;;;;;;;38.60;46.62;101153.98;106725;1285;58298;-83
2023/08/05 05:36:13;;;;;;;20.20;12.40;;;;;;;38.86;46.84;101150.98;106883;1284;58199;-82
2023/08/05 05:38:38;;;;;;;19.80;12.50;;;;;;;39.38;46.45;101147.50;106887;1284;58672;-83
2023/08/05 05:41:04;;;;;;;20.30;12.60;;;;;;;39.97;46.08;101150.24;106910;1284;58476;-82
2023/08/05 05:43:29;;;;;;;18.40;12.10;;;;;;;40.65;45.00;101150.43;106892;1284;58308;-82
2023/08/05 05:45:55;;;;;;;18.30;11.80;;;;;;;40.98;42.89;101149.13;106980;1284;58344;-82
2023/08/05 05:48:21;;;;;;;37.00;13.60;;;;;;;41.13;42.07;101148.39;106851;1284;60918;-81
2023/08/05 05:50:46;;;;;;;17.40;12.00;;;;;;;41.37;42.08;101145.83;106872;1284;58234;-82
2023/08/05 05:53:16;;;;;;;15.30;11.20;;;;;;;41.45;39.41;101147.89;106944;1284;58513;-83
2023/08/05 05:55:42;;;;;;;14.90;11.40;;;;;;;41.09;39.61;101147.23;106912;1284;73555;-83
2023/08/05 05:58:08;;;;;;;18.40;12.40;;;;;;;40.97;39.33;101148.17;106890;1284;58197;-82
2023/08/05 06:00:37;;;;;;;15.20;12.00;;;;;;;40.81;38.66;101148.70;106948;1284;58276;-83
2023/08/05 06:03:03;;;;;;;13.20;10.80;;;;;;;40.95;39.43;101141.98;106768;1285;73586;-84
2023/08/05 06:05:29;;;;;;;14.20;11.30;;;;;;;41.36;38.53;101141.40;106909;1284;58285;-83
2023/08/05 06:07:55;;;;;;;16.60;11.60;;;;;;;41.30;37.66;101140.51;106891;1284;58258;-82
2023/08/05 06:10:20;;;;;;;21.50;11.90;;;;;;;41.28;38.03;101141.21;106860;1284;58253;-81
2023/08/05 06:12:46;;;;;;;17.50;10.90;;;;;;;41.29;37.02;101143.30;106610;1285;58382;-82
2023/08/05 06:15:11;;;;;;;15.40;11.20;;;;;;;40.81;37.62;101146.98;106935;1284;58290;-81
2023/08/05 06:17:38;;;;;;;15.30;11.30;;;;;;;40.72;37.33;101147.45;106826;1285;72412;-83
2023/08/05 06:20:04;;;;;;;13.10;10.90;;;;;;;40.32;37.80;101149.00;106896;1284;61529;-83
2023/08/05 06:22:30;;;;;;;13.20;10.30;;;;;;;40.60;38.18;101151.16;106425;1285;58322;-83
2023/08/05 06:24:55;;;;;;;17.50;10.80;;;;;;;40.94;37.29;101149.44;106921;1284;58305;-83
2023/08/05 06:27:21;;;;;;;15.20;10.60;;;;;;;40.90;37.45;101144.48;106889;1284;58244;-83
2023/08/05 06:29:46;;;;;;;14.20;11.00;;;;;;;41.07;37.01;101142.53;106956;1284;58240;-82
2023/08/05 06:32:12;;;;;;;17.10;10.30;;;;;;;40.81;37.27;101144.73;106896;1284;60042;-83
2023/08/05 06:34:37;;;;;;;12.00;9.90;;;;;;;40.91;36.59;101148.09;106927;1284;58254;-82
2023/08/05 06:37:03;;;;;;;28.10;11.60;;;;;;;41.04;37.11;101145.23;106867;1284;58485;-81
2023/08/05 06:39:32;;;;;;;14.20;9.20;;;;;;;41.55;35.99;101139.20;106885;1284;58160;-81
2023/08/05 06:41:58;;;;;;;14.80;10.70;;;;;;;41.71;36.36;101134.13;106904;1284;60044;-81
2023/08/05 06:44:23;;;;;;;15.80;10.40;;;;;;;41.67;34.71;101131.27;106772;1285;58240;-82
2023/08/05 06:46:49;;;;;;;12.10;10.00;;;;;;;40.93;35.88;101125.96;106586;1285;58329;-83
2023/08/05 06:49:15;;;;;;;12.30;10.20;;;;;;;41.35;36.62;101124.88;106868;1284;58679;-81
2023/08/05 06:51:40;;;;;;;20.00;10.00;;;;;;;41.83;35.00;101125.98;106865;1284;58230;-81
2023/08/05 06:54:06;;;;;;;14.60;10.30;;;;;;;41.40;34.93;101116.79;106890;1284;60090;-81
2023/08/05 06:56:31;;;;;;;13.90;10.40;;;;;;;40.95;35.71;101109.84;106642;1285;58361;-81
2023/08/05 06:58:56;;;;;;;13.50;9.80;;;;;;;40.78;36.07;101109.92;106913;1284;58315;-80
2023/08/05 07:01:23;;;;;;;14.40;10.30;;;;;;;41.06;36.64;101108.48;106825;1284;58267;-83
2023/08/05 07:03:49;;;;;;;19.50;10.40;;;;;;;41.55;36.11;101112.10;106838;1284;58203;-85
2023/08/05 07:06:15;;;;;;;14.10;10.10;;;;;;;41.68;35.41;101114.52;106617;1285;58310;-83
2023/08/05 07:08:40;;;;;;;12.70;9.50;;;;;;;41.66;35.31;101115.64;106956;1284;58268;-82
2023/08/05 07:11:06;;;;;;;12.50;9.10;;;;;;;41.71;35.42;101115.77;106909;1284;58382;-81
2023/08/05 07:13:31;;;;;;;13.70;9.40;;;;;;;41.63;34.51;101115.99;106905;1284;58426;-83
2023/08/05 07:16:01;;;;;;;10.60;9.20;;;;;;;41.23;34.69;101112.55;106920;1284;58249;-83
2023/08/05 07:18:27;;;;;;;19.90;10.80;;;;;;;41.21;35.46;101116.99;106903;1284;74950;-82
2023/08/05 07:20:53;;;;;;;14.10;10.40;;;;;;;41.27;35.36;101117.26;106880;1284;58315;-82
2023/08/05 07:23:18;;;;;;;10.60;9.50;;;;;;;41.17;35.39;101115.93;106848;1284;59234;-81
2023/08/05 07:25:44;;;;;;;13.60;9.50;;;;;;;41.26;35.12;101119.08;106617;1285;58431;-81
2023/08/05 07:28:09;;;;;;;27.50;10.30;;;;;;;41.26;35.13;101113.67;106939;1284;58299;-83
2023/08/05 07:30:35;;;;;;;10.10;8.70;;;;;;;41.50;35.11;101116.95;106939;1284;58261;-83
2023/08/05 07:33:02;;;;;;;13.30;9.40;;;;;;;41.94;34.46;101119.82;106870;1284;58272;-84
2023/08/05 07:35:28;;;;;;;12.40;8.90;;;;;;;42.35;34.11;101117.05;106741;1287;61277;-82
2023/08/05 07:37:55;;;;;;;19.40;9.90;;;;;;;42.29;33.82;101114.04;106922;1284;58266;-81
2023/08/05 07:40:22;;;;;;;11.70;10.20;;;;;;;42.42;34.14;101113.46;106926;1284;73693;-83
2023/08/05 07:42:49;;;;;;;19.40;9.50;;;;;;;42.70;33.47;101113.16;106916;1284;73441;-83
2023/08/05 07:45:17;;;;;;;11.30;9.50;;;;;;;42.68;33.00;101112.17;106877;1284;73533;-82
2023/08/05 07:47:44;;;;;;;14.30;10.40;;;;;;;42.72;33.25;101112.23;106572;1285;61755;-82
2023/08/05 07:50:11;;;;;;;10.00;8.90;;;;;;;42.94;33.67;101111.69;106598;1284;61107;-82
2023/08/05 07:52:37;;;;;;;12.80;9.10;;;;;;;43.13;32.14;101108.98;106878;1284;58278;-82
2023/08/05 07:55:04;;;;;;;11.00;8.60;;;;;;;42.98;32.11;101109.77;106898;1284;58171;-82
2023/08/05 07:57:30;;;;;;;16.30;9.70;;;;;;;43.02;31.96;101109.58;106855;1284;73384;-81
2023/08/05 07:59:57;;;;;;;12.70;9.90;;;;;;;43.03;32.04;101114.46;106884;1284;58232;-81
2023/08/05 08:02:24;;;;;;;16.00;9.30;;;;;;;43.03;31.97;101105.55;106910;1284;58643;-81
2023/08/05 08:04:53;;;;;;;13.80;8.80;;;;;;;43.31;31.89;101098.47;106683;1285;72538;-81
2023/08/05 08:07:18;;;;;;;14.60;10.00;;;;;;;43.28;31.71;101098.77;106869;1284;74205;-80
2023/08/05 08:09:43;;;;;;;11.40;8.80;;;;;;;43.53;31.91;101099.98;106880;1284;58395;-81
2023/08/05 08:12:09;;;;;;;12.00;9.20;;;;;;;43.56;32.29;101093.85;106900;1284;58271;-80
2023/08/05 08:14:34;;;;;;;17.30;10.40;;;;;;;43.79;31.96;101093.55;106785;1285;58343;-80
2023/08/05 08:17:00;;;;;;;16.80;10.10;;;;;;;43.79;31.77;101090.81;106732;1285;58336;-80
2023/08/05 08:19:25;;;;;;;15.80;10.10;;;;;;;43.67;32.13;101091.35;106913;1284;58506;-81
2023/08/05 08:21:51;;;;;;;12.70;10.00;;;;;;;43.30;32.02;101090.08;106629;1285;58331;-82
2023/08/05 08:24:16;;;;;;;15.90;10.30;;;;;;;42.82;32.84;101087.65;106924;1284;58320;-80
2023/08/05 08:26:42;;;;;;;17.90;9.30;;;;;;;42.73;32.85;101089.77;106596;1285;58464;-82
2023/08/05 08:29:07;;;;;;;11.30;8.60;;;;;;;42.65;32.99;101089.20;106933;1284;58367;-82
2023/08/05 08:31:33;;;;;;;14.40;8.40;;;;;;;43.23;32.66;101082.94;106602;1285;58334;-82
2023/08/05 08:34:00;;;;;;;16.30;7.70;;;;;;;43.83;31.53;101086.79;106927;1285;58265;-80
2023/08/05 08:36:25;;;;;;;12.90;8.30;;;;;;;43.58;31.08;101085.86;106879;1284;58215;-81
2023/08/05 08:38:51;;;;;;;12.80;8.50;;;;;;;42.95;31.32;101084.27;106892;1284;58520;-81
2023/08/05 08:41:16;;;;;;;10.10;8.40;;;;;;;42.63;31.73;101088.83;106854;1284;58370;-81
2023/08/05 08:43:44;;;;;;;14.30;8.10;;;;;;;42.39;31.89;101089.30;106624;1285;58192;-81
2023/08/05 08:46:12;;;;;;;24.60;7.80;;;;;;;42.91;32.41;101083.48;106882;1284;74398;-81
2023/08/05 08:48:39;;;;;;;17.10;8.50;;;;;;;43.51;31.30;101079.54;106854;1285;74809;-79
2023/08/05 08:51:07;;;;;;;19.20;8.60;;;;;;;43.46;31.17;101083.99;106849;1284;73478;-80
2023/08/05 08:53:33;;;;;;;14.90;8.30;;;;;;;43.49;31.94;101079.31;106886;1284;61126;-79
2023/08/05 08:55:59;;;;;;;13.10;8.10;;;;;;;43.94;31.04;101074.96;106888;1284;58215;-79
2023/08/05 08:58:24;;;;;;;14.40;8.10;;;;;;;44.40;30.78;101077.59;106877;1284;58241;-81
2023/08/05 09:00:50;;;;;;;11.20;8.30;;;;;;;44.62;30.19;101071.17;106653;1285;58394;-83
2023/08/05 09:03:18;;;;;;;11.20;8.00;;;;;;;44.49;30.28;101070.40;106865;1284;58271;-80
2023/08/05 09:05:46;;;;;;;12.80;8.20;;;;;;;44.30;30.57;101070.05;106864;1284;58164;-80
2023/08/05 09:08:12;;;;;;;14.00;8.20;;;;;;;44.01;30.50;101067.96;106885;1284;58270;-81
2023/08/05 09:10:38;;;;;;;20.20;8.50;;;;;;;43.71;30.49;101065.47;106864;1284;58393;-81
2023/08/05 09:13:07;;;;;;;17.70;8.30;;;;;;;43.58;30.82;101065.85;106900;1284;58281;-81
2023/08/05 09:15:35;;;;;;;14.10;8.30;;;;;;;43.46;30.31;101065.20;106874;1284;73507;-80
2023/08/05 09:18:03;;;;;;;12.30;8.30;;;;;;;42.81;30.58;101066.71;106842;1285;60990;-79
2023/08/05 09:20:31;;;;;;;16.90;9.00;;;;;;;42.89;31.16;101059.23;106785;1285;61255;-80
2023/08/05 09:22:59;;;;;;;22.60;8.90;;;;;;;42.77;31.51;101059.23;106889;1284;74895;-80
2023/08/05 09:25:25;;;;;;;19.30;8.50;;;;;;;42.44;31.43;101068.87;106858;1284;73456;-81
2023/08/05 09:27:52;;;;;;;14.80;8.50;;;;;;;42.55;31.57;101064.60;106903;1284;58580;-81
2023/08/05 09:30:20;;;;;;;13.10;8.50;;;;;;;42.95;30.98;101059.79;106858;1284;60282;-80
2023/08/05 09:32:46;;;;;;;16.80;8.70;;;;;;;42.79;31.00;101061.09;106572;1284;61207;-80
2023/08/05 09:35:13;;;;;;;14.50;8.60;;;;;;;42.50;31.29;101063.36;106882;1284;58493;-79
2023/08/05 09:37:40;;;;;;;12.20;9.00;;;;;;;42.39;32.16;101056.73;106857;1284;58529;-81
2023/08/05 09:40:25;;;;;;;14.20;9.20;;;;;;;42.55;31.46;101057.06;106824;1284;73287;-80
2023/08/05 09:43:03;;;;;;;11.60;8.50;;;;;;;42.21;32.18;101060.67;106856;1284;61187;-80
2023/08/05 09:45:30;;;;;;;12.00;8.80;;;;;;;41.97;31.99;101055.44;106891;1284;61043;-80
2023/08/05 09:48:06;;;;;;;13.80;9.70;;;;;;;41.55;32.51;101053.47;106582;1284;74541;-80
2023/08/05 09:50:37;;;;;;;16.40;9.20;;;;;;;41.20;32.71;101049.36;106879;1284;74364;-80
2023/08/05 09:53:06;;;;;;;13.10;7.60;;;;;;;41.25;33.08;101048.05;106829;1284;73772;-79
2023/08/05 09:55:33;;;;;;;13.30;8.20;;;;;;;41.71;32.94;101041.12;106855;1285;60572;-80
2023/08/05 09:57:58;;;;;;;9.30;7.20;;;;;;;41.89;32.50;101036.60;106867;1284;60998;-80
2023/08/05 10:00:24;;;;;;;13.50;9.50;;;;;;;41.82;32.36;101031.30;106894;1284;58523;-79
2023/08/05 10:02:51;;;;;;;12.60;8.90;;;;;;;41.41;32.44;101030.39;106890;1284;58250;-80
2023/08/05 10:05:17;;;;;;;14.60;9.40;;;;;;;41.13;33.24;101025.89;106753;1285;58707;-80
2023/08/05 10:07:43;;;;;;;12.90;8.60;;;;;;;41.19;33.38;101032.59;106566;1285;58627;-80
2023/08/05 10:10:12;;;;;;;18.50;9.40;;;;;;;40.61;33.65;101028.30;106920;1284;58541;-80
2023/08/05 10:12:50;;;;;;;12.40;7.90;;;;;;;40.37;33.98;101027.84;106863;1284;58223;-80
2023/08/05 10:15:29;;;;;;;15.00;8.60;;;;;;;40.17;34.34;101030.53;106929;1284;74968;-80
2023/08/05 10:17:56;;;;;;;15.40;8.50;;;;;;;39.70;34.44;101028.21;106892;1284;73015;-80
2023/08/05 10:20:22;;;;;;;17.10;8.30;;;;;;;39.59;34.26;101027.44;106892;1284;58226;-80
2023/08/05 10:23:08;;;;;;;16.80;8.50;;;;;;;39.56;34.83;101025.84;106619;1284;58425;-80
2023/08/05 10:25:41;;;;;;;12.40;7.30;;;;;;;39.21;34.93;101026.38;106868;1284;74709;-79
2023/08/05 10:28:08;;;;;;;10.10;7.00;;;;;;;39.37;35.27;101031.08;106641;1285;74581;-79
2023/08/05 10:30:42;;;;;;;16.30;7.50;;;;;;;39.58;34.85;101026.82;106852;1284;72920;-78
2023/08/05 10:33:07;;;;;;;14.50;7.50;;;;;;;39.91;34.62;101025.09;106839;1284;60983;-78
2023/08/05 10:35:39;;;;;;;16.40;8.60;;;;;;;39.81;34.46;101024.81;106913;1284;58266;-79
2023/08/05 10:38:19;;;;;;;;;;;;;;;39.50;35.40;101020.63;106607;1285;72810;-78
2023/08/05 10:40:52;;;;;;;20.10;8.10;;;;;;;39.63;35.59;101017.80;106921;1284;73415;-79
2023/08/05 10:43:30;;;;;;;15.00;7.10;;;;;;;39.42;35.63;101017.39;106869;1284;73288;-78
2023/08/05 10:45:56;;;;;;;14.40;7.60;;;;;;;39.69;35.74;101012.11;106846;1284;60371;-79
2023/08/05 10:48:30;;;;;;;13.90;7.80;;;;;;;40.13;34.86;101015.25;106816;1285;58261;-79
2023/08/05 10:50:57;;;;;;;11.70;7.20;;;;;;;40.23;35.08;101017.60;106860;1284;74634;-80
2023/08/05 10:53:23;;;;;;;12.80;7.30;;;;;;;40.10;33.79;101018.14;106893;1284;74224;-79
2023/08/05 10:55:50;;;;;;;12.90;7.30;;;;;;;39.91;34.45;101013.95;106855;1284;58776;-80
2023/08/05 10:58:22;;;;;;;12.40;7.40;;;;;;;39.65;35.01;101009.52;106552;1285;60196;-79
2023/08/05 11:01:02;;;;;;;13.10;7.60;;;;;;;39.96;34.94;101007.80;106637;1284;60409;-79